LUX weather

Luxembourg-Findel International Airport
Luxembourg, Luxembourg, Luxembourg

Public forecast

Using degrees Celsius for public forecast. Weather courtesy of forecast.io.

METAR (pilot weather report)

Retrieved 2019/09/16 23:20 UTC (0 seconds ago):

ELLX 162320Z 36005KT 320V020 9999 FEW019 BKN048 16/13 Q1020 NOSIG

TAF (pilot weather forecast)

Retrieved 2019/09/16 18:27 UTC (5 hours ago):

TAF ELLX 161700Z 1618/1724 32009KT CAVOK BECMG 1620/1622 BKN025 TEMPO 1702/1707 7000 SCT006 BKN012 BECMG 1707/1709 SCT025 BECMG 1709/1711 CAVOK